sensor_id;sensor_type;location;lat;lon;timestamp;P1;durP1;ratioP1;P2;durP2;ratioP2
67456;SDS011;54319;52.038;4.640;2023-07-22T00:01:52;18.47;;;9.70;;
67456;SDS011;54319;52.038;4.640;2023-07-22T00:04:18;15.65;;;9.18;;
67456;SDS011;54319;52.038;4.640;2023-07-22T00:06:45;19.30;;;9.80;;
67456;SDS011;54319;52.038;4.640;2023-07-22T00:09:13;20.00;;;10.15;;
67456;SDS011;54319;52.038;4.640;2023-07-22T00:11:40;19.70;;;10.10;;
67456;SDS011;54319;52.038;4.640;2023-07-22T00:14:06;21.73;;;9.90;;
67456;SDS011;54319;52.038;4.640;2023-07-22T00:16:33;23.88;;;10.07;;
67456;SDS011;54319;52.038;4.640;2023-07-22T00:19:00;16.40;;;9.80;;
67456;SDS011;54319;52.038;4.640;2023-07-22T00:21:27;20.30;;;10.02;;
67456;SDS011;54319;52.038;4.640;2023-07-22T00:23:54;22.30;;;10.63;;
67456;SDS011;54319;52.038;4.640;2023-07-22T00:26:22;16.83;;;9.47;;
67456;SDS011;54319;52.038;4.640;2023-07-22T00:28:48;17.58;;;9.35;;
67456;SDS011;54319;52.038;4.640;2023-07-22T00:31:15;20.63;;;9.98;;
67456;SDS011;54319;52.038;4.640;2023-07-22T00:33:42;22.90;;;10.77;;
67456;SDS011;54319;52.038;4.640;2023-07-22T00:36:09;20.48;;;10.27;;
67456;SDS011;54319;52.038;4.640;2023-07-22T00:38:35;19.23;;;10.47;;
67456;SDS011;54319;52.038;4.640;2023-07-22T00:41:02;22.03;;;10.97;;
67456;SDS011;54319;52.038;4.640;2023-07-22T00:45:57;16.27;;;9.75;;
67456;SDS011;54319;52.038;4.640;2023-07-22T00:48:24;19.88;;;10.07;;
67456;SDS011;54319;52.038;4.640;2023-07-22T00:50:53;23.02;;;10.18;;
67456;SDS011;54319;52.038;4.640;2023-07-22T00:53:20;20.08;;;9.93;;
67456;SDS011;54319;52.038;4.640;2023-07-22T00:55:46;21.90;;;9.82;;
67456;SDS011;54319;52.038;4.640;2023-07-22T00:58:13;22.80;;;10.00;;
67456;SDS011;54319;52.038;4.640;2023-07-22T01:00:41;19.50;;;9.40;;
67456;SDS011;54319;52.038;4.640;2023-07-22T01:03:08;18.55;;;9.27;;
67456;SDS011;54319;52.038;4.640;2023-07-22T01:05:35;18.67;;;9.17;;
67456;SDS011;54319;52.038;4.640;2023-07-22T01:08:03;16.00;;;8.95;;
67456;SDS011;54319;52.038;4.640;2023-07-22T01:10:31;16.70;;;9.77;;
67456;SDS011;54319;52.038;4.640;2023-07-22T01:12:57;17.15;;;9.63;;
67456;SDS011;54319;52.038;4.640;2023-07-22T01:15:24;16.27;;;8.67;;
67456;SDS011;54319;52.038;4.640;2023-07-22T01:17:53;15.82;;;8.57;;
67456;SDS011;54319;52.038;4.640;2023-07-22T01:20:20;16.52;;;8.75;;
67456;SDS011;54319;52.038;4.640;2023-07-22T01:22:51;15.55;;;8.82;;
67456;SDS011;54319;52.038;4.640;2023-07-22T01:25:18;14.73;;;8.70;;
67456;SDS011;54319;52.038;4.640;2023-07-22T01:27:46;19.23;;;9.73;;
67456;SDS011;54319;52.038;4.640;2023-07-22T01:30:13;16.95;;;8.50;;
67456;SDS011;54319;52.038;4.640;2023-07-22T01:32:40;16.77;;;9.05;;
67456;SDS011;54319;52.038;4.640;2023-07-22T01:35:07;19.83;;;8.00;;
67456;SDS011;54319;52.038;4.640;2023-07-22T01:37:35;14.65;;;7.60;;
67456;SDS011;54319;52.038;4.640;2023-07-22T01:40:03;15.32;;;7.93;;
67456;SDS011;54319;52.038;4.640;2023-07-22T01:42:36;10.75;;;6.95;;
67456;SDS011;54319;52.038;4.640;2023-07-22T01:45:04;11.23;;;6.75;;
67456;SDS011;54319;52.038;4.640;2023-07-22T01:47:32;11.50;;;6.93;;
67456;SDS011;54319;52.038;4.640;2023-07-22T01:49:59;11.32;;;6.95;;
67456;SDS011;54319;52.038;4.640;2023-07-22T01:52:26;11.47;;;6.13;;
67456;SDS011;54319;52.038;4.640;2023-07-22T01:54:52;10.47;;;5.97;;
67456;SDS011;54319;52.038;4.640;2023-07-22T01:57:20;11.77;;;5.93;;
67456;SDS011;54319;52.038;4.640;2023-07-22T01:59:47;9.63;;;5.90;;
67456;SDS011;54319;52.038;4.640;2023-07-22T02:02:14;9.50;;;6.10;;
67456;SDS011;54319;52.038;4.640;2023-07-22T02:04:44;8.73;;;5.43;;
67456;SDS011;54319;52.038;4.640;2023-07-22T02:07:11;8.52;;;5.15;;
67456;SDS011;54319;52.038;4.640;2023-07-22T02:09:38;8.27;;;5.38;;
67456;SDS011;54319;52.038;4.640;2023-07-22T02:12:06;8.98;;;5.18;;
67456;SDS011;54319;52.038;4.640;2023-07-22T02:14:35;9.95;;;5.55;;
67456;SDS011;54319;52.038;4.640;2023-07-22T02:17:02;10.40;;;5.43;;
67456;SDS011;54319;52.038;4.640;2023-07-22T02:19:29;9.52;;;5.85;;
67456;SDS011;54319;52.038;4.640;2023-07-22T02:21:56;8.50;;;5.10;;
67456;SDS011;54319;52.038;4.640;2023-07-22T02:24:22;8.37;;;5.20;;
67456;SDS011;54319;52.038;4.640;2023-07-22T02:26:49;10.05;;;5.53;;
67456;SDS011;54319;52.038;4.640;2023-07-22T02:29:16;11.17;;;5.10;;
67456;SDS011;54319;52.038;4.640;2023-07-22T02:31:46;8.70;;;4.93;;
67456;SDS011;54319;52.038;4.640;2023-07-22T02:34:12;7.25;;;4.78;;
67456;SDS011;54319;52.038;4.640;2023-07-22T02:36:39;9.45;;;6.15;;
67456;SDS011;54319;52.038;4.640;2023-07-22T02:39:06;7.93;;;5.13;;
67456;SDS011;54319;52.038;4.640;2023-07-22T02:41:34;8.77;;;5.20;;
67456;SDS011;54319;52.038;4.640;2023-07-22T02:46:28;7.57;;;4.90;;
67456;SDS011;54319;52.038;4.640;2023-07-22T02:51:25;9.80;;;4.70;;
67456;SDS011;54319;52.038;4.640;2023-07-22T02:53:51;7.65;;;4.82;;
67456;SDS011;54319;52.038;4.640;2023-07-22T02:56:18;7.95;;;4.78;;
67456;SDS011;54319;52.038;4.640;2023-07-22T02:58:45;9.27;;;4.80;;
67456;SDS011;54319;52.038;4.640;2023-07-22T03:01:13;9.05;;;4.65;;
67456;SDS011;54319;52.038;4.640;2023-07-22T03:03:39;8.23;;;4.37;;
67456;SDS011;54319;52.038;4.640;2023-07-22T03:06:07;9.60;;;4.90;;
67456;SDS011;54319;52.038;4.640;2023-07-22T03:08:34;7.47;;;4.30;;
67456;SDS011;54319;52.038;4.640;2023-07-22T03:11:01;8.37;;;4.37;;
67456;SDS011;54319;52.038;4.640;2023-07-22T03:13:28;9.25;;;4.68;;
67456;SDS011;54319;52.038;4.640;2023-07-22T03:15:55;8.23;;;4.60;;
67456;SDS011;54319;52.038;4.640;2023-07-22T03:18:22;7.97;;;4.47;;
67456;SDS011;54319;52.038;4.640;2023-07-22T03:20:49;8.40;;;4.85;;
67456;SDS011;54319;52.038;4.640;2023-07-22T03:23:18;6.50;;;4.35;;
67456;SDS011;54319;52.038;4.640;2023-07-22T03:25:45;6.72;;;4.68;;
67456;SDS011;54319;52.038;4.640;2023-07-22T03:30:39;7.28;;;4.38;;
67456;SDS011;54319;52.038;4.640;2023-07-22T03:33:06;8.47;;;4.50;;
67456;SDS011;54319;52.038;4.640;2023-07-22T03:35:32;9.67;;;4.80;;
67456;SDS011;54319;52.038;4.640;2023-07-22T03:37:59;8.77;;;4.55;;
67456;SDS011;54319;52.038;4.640;2023-07-22T03:40:28;7.43;;;4.47;;
67456;SDS011;54319;52.038;4.640;2023-07-22T03:42:56;7.90;;;4.50;;
67456;SDS011;54319;52.038;4.640;2023-07-22T03:45:23;7.13;;;4.32;;
67456;SDS011;54319;52.038;4.640;2023-07-22T03:47:51;7.55;;;4.03;;
67456;SDS011;54319;52.038;4.640;2023-07-22T03:50:19;7.55;;;4.57;;
67456;SDS011;54319;52.038;4.640;2023-07-22T03:52:45;7.70;;;4.05;;
67456;SDS011;54319;52.038;4.640;2023-07-22T03:55:12;8.53;;;4.07;;
67456;SDS011;54319;52.038;4.640;2023-07-22T03:57:40;7.40;;;3.97;;
67456;SDS011;54319;52.038;4.640;2023-07-22T04:00:07;7.25;;;3.97;;
67456;SDS011;54319;52.038;4.640;2023-07-22T04:02:35;8.43;;;4.10;;
67456;SDS011;54319;52.038;4.640;2023-07-22T04:05:02;8.23;;;4.30;;
67456;SDS011;54319;52.038;4.640;2023-07-22T04:07:29;6.15;;;3.63;;
67456;SDS011;54319;52.038;4.640;2023-07-22T04:12:24;6.68;;;4.05;;
67456;SDS011;54319;52.038;4.640;2023-07-22T04:14:52;9.85;;;4.97;;
67456;SDS011;54319;52.038;4.640;2023-07-22T04:17:18;8.00;;;4.65;;
67456;SDS011;54319;52.038;4.640;2023-07-22T04:19:45;11.37;;;5.13;;
67456;SDS011;54319;52.038;4.640;2023-07-22T04:22:12;8.53;;;5.10;;
67456;SDS011;54319;52.038;4.640;2023-07-22T04:24:38;10.87;;;5.67;;
67456;SDS011;54319;52.038;4.640;2023-07-22T04:27:05;11.30;;;6.00;;
67456;SDS011;54319;52.038;4.640;2023-07-22T04:29:32;13.38;;;6.40;;
67456;SDS011;54319;52.038;4.640;2023-07-22T04:32:00;15.48;;;6.75;;
67456;SDS011;54319;52.038;4.640;2023-07-22T04:34:29;16.25;;;7.93;;
67456;SDS011;54319;52.038;4.640;2023-07-22T04:39:22;13.63;;;7.25;;
67456;SDS011;54319;52.038;4.640;2023-07-22T04:41:49;17.80;;;8.95;;
67456;SDS011;54319;52.038;4.640;2023-07-22T04:44:16;19.35;;;9.15;;
67456;SDS011;54319;52.038;4.640;2023-07-22T04:46:43;21.00;;;9.38;;
67456;SDS011;54319;52.038;4.640;2023-07-22T04:49:11;25.93;;;9.90;;
67456;SDS011;54319;52.038;4.640;2023-07-22T04:51:37;23.88;;;11.05;;
67456;SDS011;54319;52.038;4.640;2023-07-22T04:54:04;22.67;;;9.93;;
67456;SDS011;54319;52.038;4.640;2023-07-22T04:56:31;19.45;;;9.77;;
67456;SDS011;54319;52.038;4.640;2023-07-22T04:58:57;29.92;;;11.13;;
67456;SDS011;54319;52.038;4.640;2023-07-22T05:01:24;27.70;;;11.87;;
67456;SDS011;54319;52.038;4.640;2023-07-22T05:03:51;26.17;;;12.03;;
67456;SDS011;54319;52.038;4.640;2023-07-22T05:06:21;22.30;;;10.60;;
67456;SDS011;54319;52.038;4.640;2023-07-22T05:08:49;22.60;;;11.05;;
67456;SDS011;54319;52.038;4.640;2023-07-22T05:11:15;26.67;;;12.43;;
67456;SDS011;54319;52.038;4.640;2023-07-22T05:13:43;23.27;;;11.60;;
67456;SDS011;54319;52.038;4.640;2023-07-22T05:16:10;23.75;;;11.98;;
67456;SDS011;54319;52.038;4.640;2023-07-22T05:18:36;27.77;;;12.10;;
67456;SDS011;54319;52.038;4.640;2023-07-22T05:21:03;25.05;;;11.82;;
67456;SDS011;54319;52.038;4.640;2023-07-22T05:23:32;25.02;;;11.52;;
67456;SDS011;54319;52.038;4.640;2023-07-22T05:25:58;27.33;;;12.63;;
67456;SDS011;54319;52.038;4.640;2023-07-22T05:28:25;28.30;;;11.40;;
67456;SDS011;54319;52.038;4.640;2023-07-22T05:30:51;29.70;;;12.40;;
67456;SDS011;54319;52.038;4.640;2023-07-22T05:33:20;28.00;;;12.52;;
67456;SDS011;54319;52.038;4.640;2023-07-22T05:35:47;29.00;;;12.85;;
67456;SDS011;54319;52.038;4.640;2023-07-22T05:38:14;25.05;;;12.45;;
67456;SDS011;54319;52.038;4.640;2023-07-22T05:40:41;26.87;;;12.87;;
67456;SDS011;54319;52.038;4.640;2023-07-22T05:43:09;29.35;;;12.88;;
67456;SDS011;54319;52.038;4.640;2023-07-22T05:45:35;27.67;;;12.93;;
67456;SDS011;54319;52.038;4.640;2023-07-22T05:48:02;30.03;;;12.80;;
67456;SDS011;54319;52.038;4.640;2023-07-22T05:50:29;25.08;;;12.27;;
67456;SDS011;54319;52.038;4.640;2023-07-22T05:52:56;28.43;;;12.07;;
67456;SDS011;54319;52.038;4.640;2023-07-22T05:55:22;32.97;;;12.40;;
67456;SDS011;54319;52.038;4.640;2023-07-22T05:57:50;26.63;;;12.05;;
67456;SDS011;54319;52.038;4.640;2023-07-22T06:00:17;24.77;;;11.32;;
67456;SDS011;54319;52.038;4.640;2023-07-22T06:02:43;24.60;;;11.57;;
67456;SDS011;54319;52.038;4.640;2023-07-22T06:05:10;23.20;;;11.65;;
67456;SDS011;54319;52.038;4.640;2023-07-22T06:07:37;23.95;;;11.15;;
67456;SDS011;54319;52.038;4.640;2023-07-22T06:10:04;31.00;;;12.05;;
67456;SDS011;54319;52.038;4.640;2023-07-22T06:12:31;22.27;;;11.00;;
67456;SDS011;54319;52.038;4.640;2023-07-22T06:14:59;25.30;;;11.75;;
67456;SDS011;54319;52.038;4.640;2023-07-22T06:17:26;22.45;;;11.65;;
67456;SDS011;54319;52.038;4.640;2023-07-22T06:19:53;23.52;;;10.77;;
67456;SDS011;54319;52.038;4.640;2023-07-22T06:22:19;25.23;;;11.13;;
67456;SDS011;54319;52.038;4.640;2023-07-22T06:24:46;22.88;;;10.68;;
67456;SDS011;54319;52.038;4.640;2023-07-22T06:27:12;20.37;;;10.87;;
67456;SDS011;54319;52.038;4.640;2023-07-22T06:29:39;20.63;;;10.40;;
67456;SDS011;54319;52.038;4.640;2023-07-22T06:32:07;25.08;;;10.38;;
67456;SDS011;54319;52.038;4.640;2023-07-22T06:34:34;23.88;;;10.18;;
67456;SDS011;54319;52.038;4.640;2023-07-22T06:37:01;23.17;;;10.20;;
67456;SDS011;54319;52.038;4.640;2023-07-22T06:39:28;21.00;;;10.30;;
67456;SDS011;54319;52.038;4.640;2023-07-22T06:41:54;23.05;;;10.30;;
67456;SDS011;54319;52.038;4.640;2023-07-22T06:44:21;19.10;;;9.83;;
67456;SDS011;54319;52.038;4.640;2023-07-22T06:46:48;27.95;;;11.13;;
67456;SDS011;54319;52.038;4.640;2023-07-22T06:49:16;21.67;;;10.02;;
67456;SDS011;54319;52.038;4.640;2023-07-22T06:51:42;20.52;;;10.27;;
67456;SDS011;54319;52.038;4.640;2023-07-22T06:54:09;21.17;;;9.95;;
67456;SDS011;54319;52.038;4.640;2023-07-22T06:56:36;21.30;;;8.88;;
67456;SDS011;54319;52.038;4.640;2023-07-22T06:59:03;16.00;;;9.85;;
67456;SDS011;54319;52.038;4.640;2023-07-22T07:01:30;22.10;;;9.65;;
67456;SDS011;54319;52.038;4.640;2023-07-22T07:03:56;19.27;;;9.93;;
67456;SDS011;54319;52.038;4.640;2023-07-22T07:06:24;24.02;;;10.63;;
67456;SDS011;54319;52.038;4.640;2023-07-22T07:08:51;16.80;;;9.52;;
67456;SDS011;54319;52.038;4.640;2023-07-22T07:11:18;18.85;;;9.95;;
67456;SDS011;54319;52.038;4.640;2023-07-22T07:13:44;20.25;;;9.52;;
67456;SDS011;54319;52.038;4.640;2023-07-22T07:16:20;16.80;;;9.15;;
67456;SDS011;54319;52.038;4.640;2023-07-22T07:18:49;19.63;;;9.88;;
67456;SDS011;54319;52.038;4.640;2023-07-22T07:21:16;18.05;;;9.55;;
67456;SDS011;54319;52.038;4.640;2023-07-22T07:23:44;18.33;;;9.40;;
67456;SDS011;54319;52.038;4.640;2023-07-22T07:26:11;19.85;;;9.95;;
67456;SDS011;54319;52.038;4.640;2023-07-22T07:28:37;17.83;;;9.00;;
67456;SDS011;54319;52.038;4.640;2023-07-22T07:31:04;22.00;;;10.00;;
67456;SDS011;54319;52.038;4.640;2023-07-22T07:33:31;17.83;;;9.98;;
67456;SDS011;54319;52.038;4.640;2023-07-22T07:35:58;17.23;;;10.05;;
67456;SDS011;54319;52.038;4.640;2023-07-22T07:38:24;15.93;;;10.05;;
67456;SDS011;54319;52.038;4.640;2023-07-22T07:40:55;20.58;;;10.23;;
67456;SDS011;54319;52.038;4.640;2023-07-22T07:43:23;15.88;;;9.32;;
67456;SDS011;54319;52.038;4.640;2023-07-22T07:45:49;16.98;;;9.85;;
67456;SDS011;54319;52.038;4.640;2023-07-22T07:48:16;16.25;;;9.30;;
67456;SDS011;54319;52.038;4.640;2023-07-22T07:50:43;17.15;;;9.80;;
67456;SDS011;54319;52.038;4.640;2023-07-22T07:53:09;20.27;;;9.80;;
67456;SDS011;54319;52.038;4.640;2023-07-22T07:55:36;21.02;;;9.77;;
67456;SDS011;54319;52.038;4.640;2023-07-22T07:58:04;14.95;;;9.63;;
67456;SDS011;54319;52.038;4.640;2023-07-22T08:00:30;18.65;;;9.73;;
67456;SDS011;54319;52.038;4.640;2023-07-22T08:02:57;18.33;;;10.07;;
67456;SDS011;54319;52.038;4.640;2023-07-22T08:05:24;16.48;;;9.95;;
67456;SDS011;54319;52.038;4.640;2023-07-22T08:07:51;15.48;;;8.93;;
67456;SDS011;54319;52.038;4.640;2023-07-22T08:10:17;13.70;;;8.40;;
67456;SDS011;54319;52.038;4.640;2023-07-22T08:12:44;12.88;;;8.20;;
67456;SDS011;54319;52.038;4.640;2023-07-22T08:15:12;12.60;;;7.88;;
67456;SDS011;54319;52.038;4.640;2023-07-22T08:17:38;15.57;;;7.80;;
67456;SDS011;54319;52.038;4.640;2023-07-22T08:20:05;10.25;;;6.18;;
67456;SDS011;54319;52.038;4.640;2023-07-22T08:22:33;11.52;;;6.18;;
67456;SDS011;54319;52.038;4.640;2023-07-22T08:24:59;10.25;;;5.53;;
67456;SDS011;54319;52.038;4.640;2023-07-22T08:27:26;12.68;;;5.38;;
67456;SDS011;54319;52.038;4.640;2023-07-22T08:29:53;12.77;;;5.55;;
67456;SDS011;54319;52.038;4.640;2023-07-22T08:32:21;12.45;;;4.68;;
67456;SDS011;54319;52.038;4.640;2023-07-22T08:34:47;10.88;;;4.47;;
67456;SDS011;54319;52.038;4.640;2023-07-22T08:37:14;12.88;;;4.90;;
67456;SDS011;54319;52.038;4.640;2023-07-22T08:39:41;7.57;;;4.40;;
67456;SDS011;54319;52.038;4.640;2023-07-22T08:42:07;8.73;;;4.75;;
67456;SDS011;54319;52.038;4.640;2023-07-22T08:44:36;7.78;;;3.88;;
67456;SDS011;54319;52.038;4.640;2023-07-22T08:47:05;7.82;;;3.97;;
67456;SDS011;54319;52.038;4.640;2023-07-22T08:49:39;7.43;;;3.63;;
67456;SDS011;54319;52.038;4.640;2023-07-22T08:52:07;8.65;;;3.72;;
67456;SDS011;54319;52.038;4.640;2023-07-22T08:54:34;10.13;;;3.85;;
67456;SDS011;54319;52.038;4.640;2023-07-22T08:57:03;7.68;;;3.75;;
67456;SDS011;54319;52.038;4.640;2023-07-22T08:59:30;5.68;;;3.13;;
67456;SDS011;54319;52.038;4.640;2023-07-22T09:01:57;5.07;;;3.20;;
67456;SDS011;54319;52.038;4.640;2023-07-22T09:04:24;6.35;;;3.20;;
67456;SDS011;54319;52.038;4.640;2023-07-22T09:06:53;7.70;;;3.20;;
67456;SDS011;54319;52.038;4.640;2023-07-22T09:09:21;14.07;;;3.53;;
67456;SDS011;54319;52.038;4.640;2023-07-22T09:11:48;7.35;;;3.30;;
67456;SDS011;54319;52.038;4.640;2023-07-22T09:14:16;7.25;;;3.10;;
67456;SDS011;54319;52.038;4.640;2023-07-22T09:16:45;7.63;;;3.10;;
67456;SDS011;54319;52.038;4.640;2023-07-22T09:19:12;8.63;;;3.58;;
67456;SDS011;54319;52.038;4.640;2023-07-22T09:21:39;7.07;;;3.22;;
67456;SDS011;54319;52.038;4.640;2023-07-22T09:24:20;7.97;;;3.70;;
67456;SDS011;54319;52.038;4.640;2023-07-22T09:26:48;7.57;;;3.65;;
67456;SDS011;54319;52.038;4.640;2023-07-22T09:29:15;9.43;;;3.58;;
67456;SDS011;54319;52.038;4.640;2023-07-22T09:31:48;9.98;;;3.33;;
67456;SDS011;54319;52.038;4.640;2023-07-22T09:34:20;7.22;;;3.20;;
67456;SDS011;54319;52.038;4.640;2023-07-22T09:36:51;7.00;;;2.67;;
67456;SDS011;54319;52.038;4.640;2023-07-22T09:39:19;5.50;;;2.75;;
67456;SDS011;54319;52.038;4.640;2023-07-22T09:41:46;4.75;;;2.90;;
67456;SDS011;54319;52.038;4.640;2023-07-22T09:44:13;5.53;;;2.67;;
67456;SDS011;54319;52.038;4.640;2023-07-22T09:46:39;9.30;;;2.97;;
67456;SDS011;54319;52.038;4.640;2023-07-22T09:49:07;3.72;;;2.17;;
67456;SDS011;54319;52.038;4.640;2023-07-22T09:51:35;7.20;;;2.65;;
67456;SDS011;54319;52.038;4.640;2023-07-22T09:54:03;5.28;;;2.50;;
67456;SDS011;54319;52.038;4.640;2023-07-22T09:56:32;6.25;;;2.50;;
67456;SDS011;54319;52.038;4.640;2023-07-22T09:59:10;6.47;;;2.78;;
67456;SDS011;54319;52.038;4.640;2023-07-22T10:04:04;7.30;;;2.83;;
67456;SDS011;54319;52.038;4.640;2023-07-22T10:06:32;5.53;;;2.78;;
67456;SDS011;54319;52.038;4.640;2023-07-22T10:09:00;5.88;;;2.65;;
67456;SDS011;54319;52.038;4.640;2023-07-22T10:11:33;4.43;;;2.70;;
67456;SDS011;54319;52.038;4.640;2023-07-22T10:14:01;3.25;;;2.40;;
67456;SDS011;54319;52.038;4.640;2023-07-22T10:16:29;5.13;;;2.38;;
67456;SDS011;54319;52.038;4.640;2023-07-22T10:18:57;7.15;;;2.88;;
67456;SDS011;54319;52.038;4.640;2023-07-22T10:21:26;7.00;;;2.40;;
67456;SDS011;54319;52.038;4.640;2023-07-22T10:23:55;9.93;;;2.80;;
67456;SDS011;54319;52.038;4.640;2023-07-22T10:28:50;3.70;;;2.17;;
67456;SDS011;54319;52.038;4.640;2023-07-22T10:31:18;7.00;;;2.72;;
67456;SDS011;54319;52.038;4.640;2023-07-22T10:33:45;4.68;;;2.60;;
67456;SDS011;54319;52.038;4.640;2023-07-22T10:36:13;7.25;;;2.95;;
67456;SDS011;54319;52.038;4.640;2023-07-22T10:38:41;6.15;;;2.80;;
67456;SDS011;54319;52.038;4.640;2023-07-22T10:41:11;5.50;;;2.50;;
67456;SDS011;54319;52.038;4.640;2023-07-22T10:43:51;17.27;;;3.00;;
67456;SDS011;54319;52.038;4.640;2023-07-22T10:46:30;4.78;;;2.40;;
67456;SDS011;54319;52.038;4.640;2023-07-22T10:49:06;4.85;;;2.50;;
67456;SDS011;54319;52.038;4.640;2023-07-22T10:51:36;7.13;;;2.63;;
67456;SDS011;54319;52.038;4.640;2023-07-22T10:56:36;5.10;;;2.10;;
67456;SDS011;54319;52.038;4.640;2023-07-22T10:59:04;7.13;;;2.20;;
67456;SDS011;54319;52.038;4.640;2023-07-22T11:01:35;3.72;;;2.00;;
67456;SDS011;54319;52.038;4.640;2023-07-22T11:04:13;5.22;;;1.90;;
67456;SDS011;54319;52.038;4.640;2023-07-22T11:06:54;5.60;;;2.03;;
67456;SDS011;54319;52.038;4.640;2023-07-22T11:09:34;3.03;;;1.60;;
67456;SDS011;54319;52.038;4.640;2023-07-22T11:12:02;8.27;;;2.03;;
67456;SDS011;54319;52.038;4.640;2023-07-22T11:14:32;14.82;;;2.03;;
67456;SDS011;54319;52.038;4.640;2023-07-22T11:17:01;2.78;;;1.73;;
67456;SDS011;54319;52.038;4.640;2023-07-22T11:19:30;8.43;;;1.90;;
67456;SDS011;54319;52.038;4.640;2023-07-22T11:21:57;2.47;;;1.48;;
67456;SDS011;54319;52.038;4.640;2023-07-22T11:24:24;4.57;;;1.70;;
67456;SDS011;54319;52.038;4.640;2023-07-22T11:26:51;3.80;;;1.48;;
67456;SDS011;54319;52.038;4.640;2023-07-22T11:29:19;2.03;;;1.40;;
67456;SDS011;54319;52.038;4.640;2023-07-22T11:34:15;4.80;;;1.45;;
67456;SDS011;54319;52.038;4.640;2023-07-22T11:36:42;2.40;;;1.50;;
67456;SDS011;54319;52.038;4.640;2023-07-22T11:39:10;3.50;;;1.73;;
67456;SDS011;54319;52.038;4.640;2023-07-22T11:41:38;4.22;;;1.50;;
67456;SDS011;54319;52.038;4.640;2023-07-22T11:44:06;4.68;;;1.73;;
67456;SDS011;54319;52.038;4.640;2023-07-22T11:46:34;2.25;;;1.38;;
67456;SDS011;54319;52.038;4.640;2023-07-22T11:49:02;5.78;;;1.80;;
67456;SDS011;54319;52.038;4.640;2023-07-22T11:51:29;3.47;;;1.45;;
67456;SDS011;54319;52.038;4.640;2023-07-22T11:53:56;4.00;;;1.20;;
67456;SDS011;54319;52.038;4.640;2023-07-22T11:56:23;4.05;;;1.40;;
67456;SDS011;54319;52.038;4.640;2023-07-22T11:58:51;3.88;;;1.20;;
67456;SDS011;54319;52.038;4.640;2023-07-22T12:01:19;3.72;;;1.48;;
67456;SDS011;54319;52.038;4.640;2023-07-22T12:03:46;2.38;;;1.27;;
67456;SDS011;54319;52.038;4.640;2023-07-22T12:06:15;4.03;;;1.45;;
67456;SDS011;54319;52.038;4.640;2023-07-22T12:08:45;1.60;;;1.10;;
67456;SDS011;54319;52.038;4.640;2023-07-22T12:11:16;2.88;;;1.60;;
67456;SDS011;54319;52.038;4.640;2023-07-22T12:13:44;3.00;;;1.40;;
67456;SDS011;54319;52.038;4.640;2023-07-22T12:16:11;2.42;;;1.30;;
67456;SDS011;54319;52.038;4.640;2023-07-22T12:18:42;3.53;;;1.50;;
67456;SDS011;54319;52.038;4.640;2023-07-22T12:21:09;3.65;;;1.30;;
67456;SDS011;54319;52.038;4.640;2023-07-22T12:23:37;4.32;;;1.52;;
67456;SDS011;54319;52.038;4.640;2023-07-22T12:26:04;2.65;;;1.40;;
67456;SDS011;54319;52.038;4.640;2023-07-22T12:28:31;1.52;;;0.93;;
67456;SDS011;54319;52.038;4.640;2023-07-22T12:30:58;3.35;;;1.50;;
67456;SDS011;54319;52.038;4.640;2023-07-22T12:33:25;2.85;;;1.50;;
67456;SDS011;54319;52.038;4.640;2023-07-22T12:38:19;4.15;;;1.50;;
67456;SDS011;54319;52.038;4.640;2023-07-22T12:40:47;2.83;;;1.40;;
67456;SDS011;54319;52.038;4.640;2023-07-22T12:43:14;4.93;;;1.65;;
67456;SDS011;54319;52.038;4.640;2023-07-22T12:45:41;3.92;;;1.50;;
67456;SDS011;54319;52.038;4.640;2023-07-22T12:48:08;3.58;;;1.50;;
67456;SDS011;54319;52.038;4.640;2023-07-22T12:50:35;2.30;;;1.50;;
67456;SDS011;54319;52.038;4.640;2023-07-22T12:53:02;4.75;;;1.45;;
67456;SDS011;54319;52.038;4.640;2023-07-22T12:55:29;3.67;;;1.17;;
67456;SDS011;54319;52.038;4.640;2023-07-22T12:57:57;3.67;;;1.38;;
67456;SDS011;54319;52.038;4.640;2023-07-22T13:00:23;3.60;;;1.42;;
67456;SDS011;54319;52.038;4.640;2023-07-22T13:02:50;4.20;;;1.40;;
67456;SDS011;54319;52.038;4.640;2023-07-22T13:05:17;3.17;;;1.38;;
67456;SDS011;54319;52.038;4.640;2023-07-22T13:10:10;2.15;;;1.50;;
67456;SDS011;54319;52.038;4.640;2023-07-22T13:12:41;3.72;;;1.40;;
67456;SDS011;54319;52.038;4.640;2023-07-22T13:15:09;3.38;;;1.27;;
67456;SDS011;54319;52.038;4.640;2023-07-22T13:17:36;3.78;;;1.23;;
67456;SDS011;54319;52.038;4.640;2023-07-22T13:20:03;3.58;;;1.30;;
67456;SDS011;54319;52.038;4.640;2023-07-22T13:22:32;5.60;;;1.48;;
67456;SDS011;54319;52.038;4.640;2023-07-22T13:24:58;3.17;;;1.67;;
67456;SDS011;54319;52.038;4.640;2023-07-22T13:27:25;5.38;;;3.65;;
67456;SDS011;54319;52.038;4.640;2023-07-22T13:29:51;4.25;;;1.90;;
67456;SDS011;54319;52.038;4.640;2023-07-22T13:32:19;4.50;;;2.03;;
67456;SDS011;54319;52.038;4.640;2023-07-22T13:34:46;4.38;;;1.40;;
67456;SDS011;54319;52.038;4.640;2023-07-22T13:37:12;4.50;;;1.77;;
67456;SDS011;54319;52.038;4.640;2023-07-22T13:39:39;2.10;;;1.30;;
67456;SDS011;54319;52.038;4.640;2023-07-22T13:42:06;5.18;;;1.50;;
67456;SDS011;54319;52.038;4.640;2023-07-22T13:44:33;9.68;;;7.40;;
67456;SDS011;54319;52.038;4.640;2023-07-22T13:46:59;13.75;;;9.43;;
67456;SDS011;54319;52.038;4.640;2023-07-22T13:49:27;6.63;;;3.60;;
67456;SDS011;54319;52.038;4.640;2023-07-22T13:51:54;6.50;;;2.70;;
67456;SDS011;54319;52.038;4.640;2023-07-22T13:54:21;15.88;;;9.25;;
67456;SDS011;54319;52.038;4.640;2023-07-22T13:56:47;8.35;;;6.60;;
67456;SDS011;54319;52.038;4.640;2023-07-22T13:59:14;4.97;;;3.17;;
67456;SDS011;54319;52.038;4.640;2023-07-22T14:01:41;13.13;;;6.85;;
67456;SDS011;54319;52.038;4.640;2023-07-22T14:04:08;4.55;;;2.70;;
67456;SDS011;54319;52.038;4.640;2023-07-22T14:06:36;7.20;;;3.92;;
67456;SDS011;54319;52.038;4.640;2023-07-22T14:09:03;10.70;;;7.75;;
67456;SDS011;54319;52.038;4.640;2023-07-22T14:11:29;13.00;;;9.95;;
67456;SDS011;54319;52.038;4.640;2023-07-22T14:13:56;12.18;;;5.93;;
67456;SDS011;54319;52.038;4.640;2023-07-22T14:16:23;8.63;;;2.70;;
67456;SDS011;54319;52.038;4.640;2023-07-22T14:18:50;5.90;;;2.70;;
67456;SDS011;54319;52.038;4.640;2023-07-22T14:21:17;6.28;;;3.35;;
67456;SDS011;54319;52.038;4.640;2023-07-22T14:23:46;4.82;;;4.05;;
67456;SDS011;54319;52.038;4.640;2023-07-22T14:26:13;3.55;;;2.25;;
67456;SDS011;54319;52.038;4.640;2023-07-22T14:28:39;7.97;;;2.65;;
67456;SDS011;54319;52.038;4.640;2023-07-22T14:31:06;8.15;;;4.57;;
67456;SDS011;54319;52.038;4.640;2023-07-22T14:33:33;2.92;;;1.90;;
67456;SDS011;54319;52.038;4.640;2023-07-22T14:36:00;6.53;;;3.17;;
67456;SDS011;54319;52.038;4.640;2023-07-22T14:38:26;7.30;;;4.43;;
67456;SDS011;54319;52.038;4.640;2023-07-22T14:40:55;7.03;;;2.47;;
67456;SDS011;54319;52.038;4.640;2023-07-22T14:43:22;7.28;;;3.30;;
67456;SDS011;54319;52.038;4.640;2023-07-22T14:45:48;5.53;;;2.67;;
67456;SDS011;54319;52.038;4.640;2023-07-22T14:48:15;7.25;;;2.55;;
67456;SDS011;54319;52.038;4.640;2023-07-22T14:50:42;7.47;;;2.40;;
67456;SDS011;54319;52.038;4.640;2023-07-22T14:53:08;7.40;;;3.40;;
67456;SDS011;54319;52.038;4.640;2023-07-22T14:55:35;6.03;;;4.45;;
67456;SDS011;54319;52.038;4.640;2023-07-22T14:58:03;11.85;;;7.90;;
67456;SDS011;54319;52.038;4.640;2023-07-22T15:00:30;7.03;;;4.53;;
67456;SDS011;54319;52.038;4.640;2023-07-22T15:02:57;6.75;;;3.20;;
67456;SDS011;54319;52.038;4.640;2023-07-22T15:05:23;6.95;;;3.80;;
67456;SDS011;54319;52.038;4.640;2023-07-22T15:07:51;8.30;;;2.97;;
67456;SDS011;54319;52.038;4.640;2023-07-22T15:10:18;10.65;;;6.88;;